Time;durP1;ratioP1;P1;durP2;ratioP2;P2;SDS_P1;SDS_P2;PMS_P1;PMS_P2;Temp;Humidity;BMP_temperature;BMP_pressure;BME280_temperature;BME280_humidity;BME280_pressure;Samples;Min_cycle;Max_cycle;Signal;HPM_P1;HPM_P2
2023/12/15 00:00:18;;;;;;;21.08;12.10;;;5.10;99.90;;;;;;4978171;28;88279;-28
2023/12/15 00:02:45;;;;;;;21.93;13.43;;;5.10;99.90;;;;;;4978758;28;90437;-29
2023/12/15 00:05:11;;;;;;;24.92;13.63;;;5.10;99.90;;;;;;4977967;28;89523;-30
2023/12/15 00:07:37;;;;;;;23.52;13.00;;;5.10;99.90;;;;;;4978374;28;89860;-32
2023/12/15 00:10:03;;;;;;;22.38;13.35;;;5.10;99.90;;;;;;4977641;28;88847;-29
2023/12/15 00:12:29;;;;;;;34.10;16.77;;;5.10;99.90;;;;;;4977741;28;90138;-30
2023/12/15 00:14:54;;;;;;;28.83;14.98;;;5.10;99.90;;;;;;4977769;28;90296;-29
2023/12/15 00:17:20;;;;;;;24.77;13.45;;;5.10;99.90;;;;;;4978014;28;90584;-30
2023/12/15 00:19:45;;;;;;;25.48;14.88;;;5.10;99.90;;;;;;4978375;28;87895;-28
2023/12/15 00:22:11;;;;;;;23.35;14.52;;;5.10;99.90;;;;;;4977993;28;89833;-29
2023/12/15 00:24:37;;;;;;;24.95;15.20;;;5.20;99.90;;;;;;4977881;28;89538;-29
2023/12/15 00:27:02;;;;;;;22.80;13.55;;;5.10;99.90;;;;;;4978520;28;89982;-28
2023/12/15 00:29:28;;;;;;;19.70;13.07;;;5.20;99.90;;;;;;4978494;28;90411;-31
2023/12/15 00:31:54;;;;;;;22.90;15.25;;;5.20;99.90;;;;;;4978379;28;90318;-28
2023/12/15 00:34:19;;;;;;;26.27;15.27;;;5.20;99.90;;;;;;4977155;28;89700;-28
2023/12/15 00:36:45;;;;;;;24.15;13.70;;;5.20;99.90;;;;;;4977583;28;90401;-29
2023/12/15 00:39:11;;;;;;;22.65;16.45;;;5.20;99.90;;;;;;4977227;28;90098;-30
2023/12/15 00:41:36;;;;;;;22.42;14.82;;;5.20;99.90;;;;;;4978266;28;90105;-32
2023/12/15 00:44:05;;;;;;;26.13;15.60;;;5.20;99.90;;;;;;4977790;28;90926;-28
2023/12/15 00:46:31;;;;;;;22.95;14.52;;;5.20;99.90;;;;;;4978174;28;89494;-29
2023/12/15 00:48:57;;;;;;;21.77;13.73;;;5.30;99.90;;;;;;4977117;28;88699;-30
2023/12/15 00:51:22;;;;;;;38.33;17.40;;;5.20;99.90;;;;;;4978541;28;89389;-28
2023/12/15 00:53:48;;;;;;;28.05;15.93;;;5.30;99.90;;;;;;4978279;28;90113;-29
2023/12/15 00:56:14;;;;;;;24.38;15.55;;;5.30;99.90;;;;;;4978062;28;89714;-29
2023/12/15 00:58:39;;;;;;;20.40;13.93;;;5.30;99.90;;;;;;4977986;28;90373;-29
2023/12/15 01:01:06;;;;;;;31.65;16.15;;;5.30;99.90;;;;;;4977101;28;90234;-31
2023/12/15 01:03:31;;;;;;;23.35;15.80;;;5.30;99.90;;;;;;4977059;28;90348;-32
2023/12/15 01:05:57;;;;;;;26.05;15.68;;;5.40;99.90;;;;;;4976658;28;91002;-31
2023/12/15 01:08:23;;;;;;;24.75;14.25;;;5.40;99.90;;;;;;4978131;28;88501;-31
2023/12/15 01:10:48;;;;;;;21.52;14.43;;;5.40;99.90;;;;;;4977500;28;91284;-29
2023/12/15 01:13:14;;;;;;;25.38;17.40;;;5.40;99.90;;;;;;4977315;28;89757;-29
2023/12/15 01:15:40;;;;;;;28.17;15.10;;;5.40;99.90;;;;;;4977728;28;89611;-27
2023/12/15 01:18:05;;;;;;;31.38;17.00;;;5.50;99.90;;;;;;4976973;28;89808;-30
2023/12/15 01:20:31;;;;;;;28.58;18.10;;;5.50;99.90;;;;;;4978077;28;90170;-31
2023/12/15 01:22:57;;;;;;;26.77;16.02;;;5.50;99.90;;;;;;4977894;28;89841;-30
2023/12/15 01:25:22;;;;;;;25.38;17.02;;;5.50;99.90;;;;;;4980911;28;89791;-29
2023/12/15 01:27:48;;;;;;;25.83;15.38;;;5.50;99.90;;;;;;4980543;28;89977;-32
2023/12/15 01:30:13;;;;;;;25.40;16.95;;;5.50;99.90;;;;;;4980716;28;90650;-29
2023/12/15 01:32:39;;;;;;;26.65;15.10;;;5.50;99.90;;;;;;4981487;28;89713;-29
2023/12/15 01:35:05;;;;;;;22.38;15.63;;;5.60;99.90;;;;;;4980536;28;89090;-31
2023/12/15 01:37:31;;;;;;;29.85;17.30;;;5.60;99.90;;;;;;4980488;28;89156;-29
2023/12/15 01:39:57;;;;;;;27.40;17.35;;;5.60;99.90;;;;;;4980191;28;90237;-31
2023/12/15 01:42:22;;;;;;;40.05;18.48;;;5.60;99.90;;;;;;4980064;28;89632;-31
2023/12/15 01:44:48;;;;;;;44.65;16.38;;;5.60;99.90;;;;;;4980963;28;90920;-28
2023/12/15 01:47:17;;;;;;;27.88;17.20;;;5.60;99.90;;;;;;4980468;28;89047;-29
2023/12/15 01:49:43;;;;;;;23.95;16.88;;;5.70;99.90;;;;;;4980846;28;90066;-32
2023/12/15 01:52:09;;;;;;;22.45;16.55;;;5.70;99.90;;;;;;4979599;28;90732;-29
2023/12/15 01:54:35;;;;;;;28.02;16.45;;;5.70;99.90;;;;;;4978873;28;90718;-28
2023/12/15 01:57:00;;;;;;;31.48;17.08;;;5.70;99.90;;;;;;4980640;28;89489;-27
2023/12/15 01:59:26;;;;;;;31.08;17.10;;;5.80;99.90;;;;;;4980582;28;90306;-29
2023/12/15 02:01:51;;;;;;;28.40;16.17;;;5.80;99.90;;;;;;4980288;28;89398;-29
2023/12/15 02:04:17;;;;;;;28.95;17.58;;;5.80;99.90;;;;;;4980608;28;89241;-30
2023/12/15 02:06:43;;;;;;;27.55;15.32;;;5.80;99.90;;;;;;4979918;28;89241;-29
2023/12/15 02:09:08;;;;;;;42.05;19.42;;;5.80;99.90;;;;;;4981056;28;90184;-28
2023/12/15 02:11:34;;;;;;;24.80;16.17;;;5.90;99.90;;;;;;4979376;28;91061;-30
2023/12/15 02:13:59;;;;;;;26.23;17.05;;;5.90;99.90;;;;;;4980156;28;89816;-30
2023/12/15 02:16:25;;;;;;;37.20;18.70;;;5.90;99.90;;;;;;4979404;28;89284;-29
2023/12/15 02:18:50;;;;;;;29.83;19.90;;;6.00;99.90;;;;;;4980059;28;89806;-28
2023/12/15 02:21:16;;;;;;;36.00;17.77;;;6.00;99.90;;;;;;4980208;28;89631;-29
2023/12/15 02:23:42;;;;;;;26.38;15.55;;;6.00;99.90;;;;;;4979812;28;89140;-31
2023/12/15 02:26:07;;;;;;;32.47;20.25;;;6.00;99.90;;;;;;4980112;28;87503;-31
2023/12/15 02:28:33;;;;;;;32.53;18.77;;;6.00;99.90;;;;;;4979345;28;90431;-31
2023/12/15 02:30:58;;;;;;;33.83;18.15;;;6.00;99.90;;;;;;4979569;28;89775;-28
2023/12/15 02:33:24;;;;;;;34.05;19.00;;;6.00;99.90;;;;;;4979370;28;89843;-30
2023/12/15 02:35:50;;;;;;;35.70;18.52;;;6.00;99.90;;;;;;4979501;28;88965;-31
2023/12/15 02:38:18;;;;;;;27.60;16.38;;;6.00;99.90;;;;;;4979797;28;89913;-30
2023/12/15 02:40:44;;;;;;;30.95;18.95;;;6.00;99.90;;;;;;4979240;28;91906;-28
2023/12/15 02:43:10;;;;;;;29.77;18.00;;;6.00;99.90;;;;;;4977532;28;90324;-31
2023/12/15 02:45:39;;;;;;;37.38;19.27;;;6.10;99.90;;;;;;4980112;28;87415;-30
2023/12/15 02:48:05;;;;;;;29.70;19.42;;;6.10;99.90;;;;;;4979941;28;90215;-31
2023/12/15 02:50:30;;;;;;;44.20;20.55;;;6.10;99.90;;;;;;4979036;28;89362;-28
2023/12/15 02:52:56;;;;;;;28.58;17.90;;;6.10;99.90;;;;;;4979111;28;89747;-28
2023/12/15 02:55:21;;;;;;;28.75;17.67;;;6.10;99.90;;;;;;4978780;28;88438;-29
2023/12/15 02:57:47;;;;;;;29.45;17.48;;;6.10;99.90;;;;;;4980325;28;89725;-30
2023/12/15 03:00:14;;;;;;;39.83;18.58;;;6.10;99.90;;;;;;4979539;28;89852;-30
2023/12/15 03:02:40;;;;;;;22.77;16.55;;;6.20;99.90;;;;;;4978528;28;89246;-28
2023/12/15 03:05:06;;;;;;;34.42;20.25;;;6.20;99.90;;;;;;4978391;28;90487;-30
2023/12/15 03:07:31;;;;;;;41.20;19.58;;;6.20;99.90;;;;;;4973547;28;90067;-30
2023/12/15 03:09:57;;;;;;;38.67;20.92;;;6.20;99.90;;;;;;4978582;28;89572;-32
2023/12/15 03:12:23;;;;;;;37.72;19.25;;;6.20;99.90;;;;;;4979981;28;89631;-29
2023/12/15 03:14:49;;;;;;;39.83;18.88;;;6.20;99.90;;;;;;4978667;28;89039;-28
2023/12/15 03:17:16;;;;;;;46.35;20.08;;;6.20;99.90;;;;;;4979111;28;90137;-29
2023/12/15 03:19:42;;;;;;;27.73;15.77;;;6.30;99.90;;;;;;4979019;28;89718;-29
2023/12/15 03:22:08;;;;;;;28.88;19.33;;;6.30;99.90;;;;;;4979049;28;90139;-29
2023/12/15 03:24:33;;;;;;;37.17;17.90;;;6.30;99.90;;;;;;4979229;28;89394;-32
2023/12/15 03:26:59;;;;;;;38.58;19.02;;;6.30;99.90;;;;;;4978811;28;90403;-29
2023/12/15 03:29:24;;;;;;;52.28;19.55;;;6.30;99.90;;;;;;4977930;28;90492;-31
2023/12/15 03:31:50;;;;;;;42.85;20.30;;;6.30;99.90;;;;;;4978369;28;90742;-29
2023/12/15 03:34:16;;;;;;;28.80;16.33;;;6.30;99.90;;;;;;4978427;28;88683;-30
2023/12/15 03:36:41;;;;;;;34.30;19.52;;;6.30;99.90;;;;;;4978598;28;90397;-30
2023/12/15 03:39:07;;;;;;;31.73;17.33;;;6.40;99.90;;;;;;4978062;28;89915;-29
2023/12/15 03:41:33;;;;;;;35.65;19.00;;;6.40;99.90;;;;;;4978615;28;89464;-31
2023/12/15 03:44:00;;;;;;;34.80;18.10;;;6.40;99.90;;;;;;4978164;28;90246;-27
2023/12/15 03:46:25;;;;;;;41.10;20.08;;;6.40;99.90;;;;;;4977471;28;90481;-31
2023/12/15 03:48:51;;;;;;;37.25;18.65;;;6.40;99.90;;;;;;4978915;28;90375;-30
2023/12/15 03:51:17;;;;;;;32.33;19.83;;;6.50;99.90;;;;;;4978117;28;89139;-28
2023/12/15 03:53:43;;;;;;;36.45;17.33;;;6.50;99.90;;;;;;4978315;28;89646;-29
2023/12/15 03:56:09;;;;;;;27.98;16.73;;;6.50;99.90;;;;;;4978197;28;90857;-28
2023/12/15 03:58:34;;;;;;;32.10;18.48;;;6.50;99.90;;;;;;4978077;28;90736;-29
2023/12/15 04:01:00;;;;;;;37.17;18.55;;;6.50;99.90;;;;;;4978291;28;90557;-28
2023/12/15 04:03:26;;;;;;;41.40;17.17;;;6.50;99.90;;;;;;4977483;28;88898;-29
2023/12/15 04:05:52;;;;;;;42.75;17.08;;;6.50;99.90;;;;;;4978377;28;90176;-29
2023/12/15 04:08:17;;;;;;;37.67;19.13;;;6.50;99.90;;;;;;4977477;28;90086;-29
2023/12/15 04:10:43;;;;;;;41.88;19.45;;;6.60;99.90;;;;;;4979130;28;89552;-30
2023/12/15 04:13:09;;;;;;;43.33;20.55;;;6.60;99.90;;;;;;4978715;28;89903;-29
2023/12/15 04:15:34;;;;;;;29.58;20.38;;;6.60;99.90;;;;;;4978009;28;90026;-31
2023/12/15 04:18:04;;;;;;;33.38;18.08;;;6.60;99.90;;;;;;4977850;28;90754;-29
2023/12/15 04:20:29;;;;;;;33.00;20.65;;;6.60;99.90;;;;;;4978779;28;90396;-30
2023/12/15 04:22:55;;;;;;;31.58;19.15;;;6.60;99.90;;;;;;4978157;28;89711;-28
2023/12/15 04:25:21;;;;;;;34.88;18.08;;;6.60;99.90;;;;;;4978957;28;90079;-31
2023/12/15 04:27:47;;;;;;;41.58;17.77;;;6.60;99.90;;;;;;4977730;28;89811;-30
2023/12/15 04:30:12;;;;;;;34.58;16.67;;;6.70;99.90;;;;;;4977979;28;89953;-32
2023/12/15 04:32:38;;;;;;;35.40;19.77;;;6.70;99.90;;;;;;4977862;28;89865;-31
2023/12/15 04:35:05;;;;;;;30.83;18.08;;;6.70;99.90;;;;;;4978267;28;90205;-29
2023/12/15 04:37:30;;;;;;;43.22;21.05;;;6.70;99.90;;;;;;4977351;28;91532;-31
2023/12/15 04:39:56;;;;;;;38.05;16.65;;;6.70;99.90;;;;;;4977055;28;88656;-29
2023/12/15 04:42:22;;;;;;;37.83;16.98;;;6.70;99.90;;;;;;4977576;28;89236;-31
2023/12/15 04:44:47;;;;;;;29.05;15.82;;;6.70;99.90;;;;;;4978034;28;90728;-28
2023/12/15 04:47:13;;;;;;;31.85;15.80;;;6.70;99.90;;;;;;4977515;28;90421;-29
2023/12/15 04:49:39;;;;;;;29.80;16.80;;;6.70;99.90;;;;;;4978295;28;89712;-28
2023/12/15 04:52:05;;;;;;;37.33;18.17;;;6.70;99.90;;;;;;4977526;28;88746;-34
2023/12/15 04:54:30;;;;;;;36.05;17.55;;;6.70;99.90;;;;;;4978172;28;90555;-31
2023/12/15 04:56:56;;;;;;;35.75;18.08;;;6.70;99.90;;;;;;4978299;28;89441;-32
2023/12/15 04:59:22;;;;;;;44.38;18.88;;;6.70;99.90;;;;;;4980206;28;89246;-31
2023/12/15 05:01:47;;;;;;;37.00;19.67;;;6.70;99.90;;;;;;4981508;28;89882;-31
2023/12/15 05:04:13;;;;;;;28.17;16.30;;;6.70;99.90;;;;;;4980641;28;91103;-32
2023/12/15 05:06:39;;;;;;;28.52;14.30;;;6.80;99.90;;;;;;4980378;28;91273;-31
2023/12/15 05:09:04;;;;;;;41.97;18.55;;;6.70;99.90;;;;;;4981264;28;90205;-31
2023/12/15 05:11:33;;;;;;;40.95;19.70;;;6.70;99.90;;;;;;4981292;28;88701;-33
2023/12/15 05:13:59;;;;;;;34.58;16.17;;;6.70;99.90;;;;;;4981181;28;89856;-32
2023/12/15 05:16:24;;;;;;;34.90;16.10;;;6.80;99.90;;;;;;4980356;28;89888;-33
2023/12/15 05:18:50;;;;;;;24.70;15.23;;;6.70;99.90;;;;;;4980854;28;88708;-33
2023/12/15 05:21:15;;;;;;;38.50;17.95;;;6.70;99.90;;;;;;4980129;28;88838;-31
2023/12/15 05:23:41;;;;;;;40.45;19.65;;;6.70;99.90;;;;;;4980852;28;90680;-32
2023/12/15 05:26:06;;;;;;;32.75;16.83;;;6.80;99.90;;;;;;4980658;28;90027;-31
2023/12/15 05:28:32;;;;;;;35.10;19.33;;;6.70;99.90;;;;;;4980025;28;89635;-33
2023/12/15 05:30:58;;;;;;;33.45;19.90;;;6.80;99.90;;;;;;4980173;28;90090;-33
2023/12/15 05:33:24;;;;;;;33.92;20.27;;;6.70;99.90;;;;;;4979944;28;90458;-33
2023/12/15 05:35:49;;;;;;;34.78;16.95;;;6.80;99.90;;;;;;4980123;28;90085;-33
2023/12/15 05:38:16;;;;;;;31.27;15.68;;;6.80;99.90;;;;;;4980670;28;91199;-31
2023/12/15 05:40:42;;;;;;;33.50;18.90;;;6.80;99.90;;;;;;4979796;28;89328;-30
2023/12/15 05:43:07;;;;;;;44.00;20.00;;;6.80;99.90;;;;;;4980479;28;90313;-31
2023/12/15 05:45:33;;;;;;;41.28;17.88;;;6.80;99.90;;;;;;4979902;28;89335;-33
2023/12/15 05:47:58;;;;;;;37.60;18.75;;;6.80;99.90;;;;;;4980631;28;89681;-34
2023/12/15 05:50:24;;;;;;;28.65;17.60;;;6.80;99.90;;;;;;4980262;28;89571;-31
2023/12/15 05:52:49;;;;;;;39.88;19.67;;;6.80;99.90;;;;;;4978538;28;90335;-33
2023/12/15 05:55:15;;;;;;;34.47;17.55;;;6.80;99.90;;;;;;4979274;28;90741;-30
2023/12/15 05:57:40;;;;;;;34.78;15.57;;;6.80;99.90;;;;;;4980370;28;90907;-31
2023/12/15 06:00:08;;;;;;;38.42;18.70;;;6.80;99.90;;;;;;4980804;28;89343;-30
2023/12/15 06:02:34;;;;;;;28.58;15.20;;;6.80;99.90;;;;;;4980283;28;90384;-32
2023/12/15 06:04:59;;;;;;;33.25;19.27;;;6.80;99.90;;;;;;4982842;28;89980;-31
2023/12/15 06:07:25;;;;;;;30.88;17.00;;;6.80;99.90;;;;;;4980390;28;90412;-29
2023/12/15 06:09:51;;;;;;;32.55;18.08;;;6.80;99.90;;;;;;4979654;28;90256;-29
2023/12/15 06:12:17;;;;;;;49.20;18.15;;;6.80;99.90;;;;;;4979073;28;90056;-31
2023/12/15 06:14:42;;;;;;;35.90;17.80;;;6.80;99.90;;;;;;4979852;28;89716;-29
2023/12/15 06:17:08;;;;;;;31.67;14.95;;;6.70;99.90;;;;;;4977596;28;89437;-33
2023/12/15 06:19:37;;;;;;;37.33;18.70;;;6.70;99.90;;;;;;4980198;28;90088;-30
2023/12/15 06:22:03;;;;;;;36.97;17.25;;;6.70;99.90;;;;;;4980194;28;90393;-29
2023/12/15 06:24:29;;;;;;;33.80;16.02;;;6.70;99.90;;;;;;4979877;28;89421;-31
2023/12/15 06:26:54;;;;;;;38.22;18.48;;;6.70;99.90;;;;;;4980210;28;89643;-30
2023/12/15 06:29:20;;;;;;;39.05;17.38;;;6.70;99.90;;;;;;4979476;28;89444;-29
2023/12/15 06:31:46;;;;;;;40.10;17.92;;;6.70;99.90;;;;;;4978366;28;90733;-33
2023/12/15 06:34:12;;;;;;;34.17;19.42;;;6.70;99.90;;;;;;4979753;28;89069;-29
2023/12/15 06:36:39;;;;;;;36.50;15.98;;;6.70;99.90;;;;;;4979226;28;89785;-29
2023/12/15 06:39:04;;;;;;;30.52;16.00;;;6.70;99.90;;;;;;4979815;28;89648;-30
2023/12/15 06:41:30;;;;;;;42.65;16.63;;;6.70;99.90;;;;;;4979401;28;90242;-29
2023/12/15 06:43:55;;;;;;;30.08;19.65;;;6.70;99.90;;;;;;4979156;28;90540;-29
2023/12/15 06:46:21;;;;;;;32.40;17.75;;;6.70;99.90;;;;;;4979783;28;90023;-28
2023/12/15 06:48:47;;;;;;;40.03;15.98;;;6.70;99.90;;;;;;4979257;28;87827;-29
2023/12/15 06:51:12;;;;;;;34.33;18.95;;;6.60;99.90;;;;;;4979520;28;90450;-31
2023/12/15 06:53:38;;;;;;;29.08;15.80;;;6.70;99.90;;;;;;4978582;28;89370;-30
2023/12/15 06:56:04;;;;;;;47.97;17.98;;;6.70;99.90;;;;;;4979679;28;89859;-28
2023/12/15 06:58:30;;;;;;;35.45;19.60;;;6.70;99.90;;;;;;4979096;28;89655;-28
2023/12/15 07:00:56;;;;;;;31.10;14.82;;;6.70;99.90;;;;;;4963556;28;90309;-30
2023/12/15 07:03:21;;;;;;;31.73;16.90;;;6.70;99.90;;;;;;4966596;28;89862;-30
2023/12/15 07:05:47;;;;;;;23.52;13.95;;;6.70;99.90;;;;;;4969202;28;89543;-30
2023/12/15 07:08:13;;;;;;;26.63;15.02;;;6.70;99.90;;;;;;4977308;28;90547;-31
2023/12/15 07:10:38;;;;;;;29.92;17.23;;;6.70;99.90;;;;;;4972924;28;89279;-29
2023/12/15 07:13:04;;;;;;;43.45;18.27;;;6.70;99.90;;;;;;4979227;28;88860;-31
2023/12/15 07:15:30;;;;;;;28.83;16.88;;;6.70;99.90;;;;;;4979026;28;89669;-28
2023/12/15 07:17:56;;;;;;;35.03;18.30;;;6.70;99.90;;;;;;4978279;28;88569;-29
2023/12/15 07:20:24;;;;;;;34.35;19.80;;;6.70;99.90;;;;;;4979323;28;90609;-31
2023/12/15 07:22:49;;;;;;;28.00;15.90;;;6.70;99.90;;;;;;4979600;28;89707;-28
2023/12/15 07:25:15;;;;;;;33.92;15.95;;;6.70;99.90;;;;;;4978581;28;89412;-31
2023/12/15 07:27:41;;;;;;;36.13;18.05;;;6.70;99.90;;;;;;4978883;28;88663;-29
2023/12/15 07:30:07;;;;;;;31.27;14.95;;;6.70;99.90;;;;;;4978618;28;90323;-28
2023/12/15 07:32:33;;;;;;;31.35;14.68;;;6.70;99.90;;;;;;4977942;28;91023;-30
2023/12/15 07:34:59;;;;;;;36.40;17.35;;;6.70;99.90;;;;;;4978980;28;90490;-30
2023/12/15 07:37:24;;;;;;;39.95;16.08;;;6.70;99.90;;;;;;5012021;22;90540;-30
2023/12/15 07:39:50;;;;;;;27.48;16.88;;;6.70;99.90;;;;;;4988512;28;91436;-28
2023/12/15 07:42:16;;;;;;;29.88;17.13;;;6.70;99.90;;;;;;4996980;28;89826;-28
2023/12/15 07:44:41;;;;;;;33.80;16.75;;;6.80;99.90;;;;;;4998178;28;90390;-29
2023/12/15 07:47:07;;;;;;;34.30;17.35;;;6.80;99.90;;;;;;4997129;28;89579;-28
2023/12/15 07:49:34;;;;;;;31.40;18.15;;;6.80;99.90;;;;;;4998314;28;90436;-28
2023/12/15 07:52:01;;;;;;;30.92;16.00;;;6.80;99.90;;;;;;4996356;28;89559;-32
2023/12/15 07:54:29;;;;;;;34.13;17.38;;;6.80;99.90;;;;;;4988839;28;89977;-30
2023/12/15 07:56:55;;;;;;;34.15;15.98;;;6.80;99.90;;;;;;4992862;28;88965;-30
2023/12/15 07:59:20;;;;;;;36.85;16.02;;;6.80;99.90;;;;;;4994766;28;90368;-32
2023/12/15 08:01:51;;;;;;;39.95;17.42;;;6.80;99.90;;;;;;4988363;28;89885;-31
2023/12/15 08:04:17;;;;;;;30.45;18.73;;;6.80;99.90;;;;;;4995684;28;90214;-30
2023/12/15 08:06:42;;;;;;;31.35;16.48;;;6.80;99.90;;;;;;4981670;28;90113;-30
2023/12/15 08:09:08;;;;;;;32.28;17.52;;;6.80;99.90;;;;;;4988337;28;90256;-30
2023/12/15 08:11:34;;;;;;;47.47;17.40;;;6.80;99.90;;;;;;4982756;28;89603;-29
2023/12/15 08:13:59;;;;;;;29.25;17.05;;;6.80;99.90;;;;;;4987800;28;90090;-30
2023/12/15 08:16:25;;;;;;;35.15;17.45;;;6.80;99.90;;;;;;4981348;28;89427;-33
2023/12/15 08:18:50;;;;;;;43.38;18.52;;;6.90;99.90;;;;;;4980092;28;90251;-33
2023/12/15 08:21:16;;;;;;;25.95;13.40;;;6.90;99.90;;;;;;4986094;28;90981;-29
2023/12/15 08:23:42;;;;;;;37.20;15.82;;;6.90;99.90;;;;;;4987351;28;89941;-28
2023/12/15 08:26:08;;;;;;;41.70;16.70;;;6.90;99.90;;;;;;4987372;28;88856;-29
2023/12/15 08:28:35;;;;;;;31.95;14.98;;;6.90;99.90;;;;;;4989886;28;90678;-29
2023/12/15 08:31:02;;;;;;;26.60;14.30;;;6.90;99.90;;;;;;4993849;28;89630;-30
2023/12/15 08:33:28;;;;;;;30.15;15.98;;;6.90;99.90;;;;;;4989004;28;89516;-29
2023/12/15 08:35:54;;;;;;;34.10;16.55;;;6.90;99.90;;;;;;4979278;28;89528;-30
2023/12/15 08:38:19;;;;;;;23.38;13.55;;;7.00;99.90;;;;;;4979269;28;90329;-33
2023/12/15 08:40:45;;;;;;;29.33;15.52;;;7.00;99.90;;;;;;4979572;28;89488;-31
2023/12/15 08:43:10;;;;;;;26.55;12.73;;;7.00;99.90;;;;;;4978653;28;90623;-31
2023/12/15 08:45:36;;;;;;;37.65;14.35;;;7.00;99.90;;;;;;4978388;28;89750;-29
2023/12/15 08:48:02;;;;;;;33.40;14.93;;;7.00;99.90;;;;;;4975413;28;88832;-32
2023/12/15 08:50:28;;;;;;;37.00;14.70;;;7.10;99.90;;;;;;4984604;28;89701;-29
2023/12/15 08:52:54;;;;;;;27.63;17.73;;;7.10;99.90;;;;;;4978422;28;89824;-31
2023/12/15 08:55:19;;;;;;;26.42;15.80;;;7.10;99.90;;;;;;4978746;28;88045;-30
2023/12/15 08:57:45;;;;;;;19.40;12.82;;;7.10;99.90;;;;;;4979223;28;90599;-30
2023/12/15 09:00:11;;;;;;;28.90;16.50;;;7.10;99.90;;;;;;4980502;28;89042;-30
2023/12/15 09:02:37;;;;;;;30.33;14.68;;;7.10;99.90;;;;;;4991236;28;90044;-31
2023/12/15 09:05:03;;;;;;;40.65;15.73;;;7.10;99.90;;;;;;4990010;28;89457;-30
2023/12/15 09:07:29;;;;;;;31.17;14.23;;;7.20;99.90;;;;;;4990767;28;90328;-29
2023/12/15 09:09:55;;;;;;;29.52;12.85;;;7.20;99.90;;;;;;4988369;28;90940;-32
2023/12/15 09:12:20;;;;;;;25.40;12.38;;;7.20;99.90;;;;;;4990181;28;90083;-31
2023/12/15 09:14:47;;;;;;;32.40;12.60;;;7.20;99.90;;;;;;4990936;28;88515;-32
2023/12/15 09:17:13;;;;;;;24.30;12.38;;;7.20;99.90;;;;;;4991520;28;89686;-29
2023/12/15 09:19:39;;;;;;;28.00;13.60;;;7.20;99.90;;;;;;4990800;28;89000;-30
2023/12/15 09:22:05;;;;;;;25.05;13.77;;;7.20;99.90;;;;;;4990209;28;89146;-30
2023/12/15 09:24:33;;;;;;;23.17;11.68;;;7.20;99.90;;;;;;4985074;28;89952;-29
2023/12/15 09:26:59;;;;;;;39.43;13.50;;;7.30;99.90;;;;;;4990168;28;90115;-32
2023/12/15 09:29:25;;;;;;;42.42;15.30;;;7.30;99.90;;;;;;4995286;28;90591;-28
2023/12/15 09:31:51;;;;;;;21.17;14.43;;;7.30;99.90;;;;;;4997980;28;90159;-29
2023/12/15 09:34:17;;;;;;;19.77;11.60;;;7.30;99.90;;;;;;4996787;28;89982;-30
2023/12/15 09:36:43;;;;;;;18.42;11.70;;;7.30;99.90;;;;;;4997190;28;88307;-32
2023/12/15 09:39:08;;;;;;;18.60;10.35;;;7.30;99.90;;;;;;4995817;28;89969;-32
2023/12/15 09:41:35;;;;;;;19.35;10.82;;;7.40;99.90;;;;;;4997867;28;88836;-29
2023/12/15 09:44:01;;;;;;;26.25;11.50;;;7.40;99.90;;;;;;4994522;28;89434;-29
2023/12/15 09:46:27;;;;;;;24.52;11.02;;;7.40;99.90;;;;;;4996918;28;90140;-29
2023/12/15 09:48:53;;;;;;;15.00;9.07;;;7.50;99.90;;;;;;4995823;28;89676;-33
2023/12/15 09:51:25;;;;;;;23.65;9.77;;;7.50;99.90;;;;;;4994386;28;89407;-29
2023/12/15 09:53:53;;;;;;;23.80;11.98;;;7.50;99.90;;;;;;4993840;28;88686;-32
2023/12/15 09:56:19;;;;;;;31.98;12.57;;;7.50;99.90;;;;;;4990812;28;90121;-30
2023/12/15 09:58:45;;;;;;;21.70;10.00;;;7.60;99.90;;;;;;4993082;28;90307;-30
2023/12/15 10:01:11;;;;;;;18.27;9.90;;;7.60;99.90;;;;;;4995852;28;89576;-32
2023/12/15 10:03:38;;;;;;;16.25;9.43;;;7.60;99.90;;;;;;4994345;28;89824;-30
2023/12/15 10:06:03;;;;;;;28.05;10.25;;;7.70;99.90;;;;;;4996022;28;90297;-33
2023/12/15 10:08:40;;;;;;;16.02;9.52;;;7.70;99.90;;;;;;4995657;28;89925;-31
2023/12/15 10:11:05;;;;;;;23.08;9.13;;;7.80;99.90;;;;;;4995065;28;91286;-30
2023/12/15 10:13:31;;;;;;;21.65;9.25;;;7.70;99.90;;;;;;4997177;28;88820;-30
2023/12/15 10:15:57;;;;;;;24.70;10.23;;;7.80;99.90;;;;;;4995817;28;90113;-31
2023/12/15 10:18:23;;;;;;;20.38;9.68;;;7.80;99.90;;;;;;4996864;28;89443;-29
2023/12/15 10:20:49;;;;;;;16.42;8.77;;;7.80;99.90;;;;;;4994265;28;89166;-31
2023/12/15 10:23:15;;;;;;;19.23;10.65;;;7.80;99.90;;;;;;4996296;28;90146;-30
2023/12/15 10:25:47;;;;;;;21.92;10.43;;;7.90;99.90;;;;;;4995674;28;89551;-30
2023/12/15 10:28:15;;;;;;;25.02;9.90;;;7.90;99.90;;;;;;4995282;28;89175;-31
2023/12/15 10:30:40;;;;;;;35.47;12.82;;;7.90;99.90;;;;;;4997241;28;89702;-31
2023/12/15 10:33:07;;;;;;;24.27;9.60;;;8.00;99.90;;;;;;4996337;28;89171;-31
2023/12/15 10:35:35;;;;;;;19.45;9.30;;;8.00;99.90;;;;;;4996454;28;90735;-29
2023/12/15 10:38:01;;;;;;;27.85;10.05;;;8.00;99.90;;;;;;4996613;28;89579;-33
2023/12/15 10:40:26;;;;;;;21.48;10.52;;;8.10;99.90;;;;;;4996246;28;89872;-29
2023/12/15 10:42:53;;;;;;;17.23;8.88;;;8.10;99.90;;;;;;4995850;28;88673;-28
2023/12/15 10:45:19;;;;;;;23.15;8.93;;;8.10;99.90;;;;;;4983576;28;90203;-33
2023/12/15 10:47:48;;;;;;;16.73;7.93;;;8.20;99.90;;;;;;4996530;28;90475;-31
2023/12/15 10:50:14;;;;;;;13.50;7.57;;;8.20;99.90;;;;;;4994657;28;90307;-30
2023/12/15 10:52:40;;;;;;;28.70;8.55;;;8.20;99.90;;;;;;4997558;28;88927;-31
2023/12/15 10:55:07;;;;;;;17.23;6.45;;;8.20;99.90;;;;;;4996651;28;90204;-30
2023/12/15 10:57:32;;;;;;;25.23;7.18;;;8.20;99.90;;;;;;4987840;28;89339;-28
2023/12/15 11:00:02;;;;;;;20.27;8.80;;;8.30;99.90;;;;;;4976695;28;89621;-32
2023/12/15 11:02:31;;;;;;;27.65;10.25;;;8.20;99.90;;;;;;4977512;28;88452;-30
2023/12/15 11:04:59;;;;;;;19.67;7.25;;;8.30;99.90;;;;;;4987969;28;90474;-31
2023/12/15 11:07:25;;;;;;;15.53;7.60;;;8.40;99.90;;;;;;4997578;28;89608;-31
2023/12/15 11:09:51;;;;;;;13.52;8.63;;;8.40;99.90;;;;;;4986253;28;90356;-28
2023/12/15 11:12:31;;;;;;;14.30;7.80;;;8.40;99.90;;;;;;4985546;28;89798;-31
2023/12/15 11:15:02;;;;;;;17.65;8.57;;;8.40;99.90;;;;;;4976498;28;90334;-33
2023/12/15 11:17:29;;;;;;;16.40;7.63;;;8.50;99.90;;;;;;4977607;28;89802;-31
2023/12/15 11:20:20;;;;;;;18.88;6.78;;;8.50;99.90;;;;;;4976380;28;89711;-32
2023/12/15 11:23:04;;;;;;;16.05;6.35;;;8.50;99.90;;;;;;4979399;28;88283;-33
2023/12/15 11:25:32;;;;;;;12.77;8.13;;;8.50;99.90;;;;;;4996632;28;90354;-29
2023/12/15 11:28:10;;;;;;;19.45;7.90;;;8.50;99.90;;;;;;4995987;28;90433;-28
2023/12/15 11:30:39;;;;;;;20.85;7.22;;;8.50;99.90;;;;;;4983304;28;89824;-30
2023/12/15 11:33:26;;;;;;;17.10;7.25;;;8.60;99.90;;;;;;4989250;28;88141;-29
2023/12/15 11:36:13;;;;;;;19.63;6.40;;;8.60;99.90;;;;;;4974396;28;90230;-30
2023/12/15 11:38:40;;;;;;;21.35;7.85;;;8.60;99.90;;;;;;4988767;28;92053;-31
2023/12/15 11:41:07;;;;;;;14.35;5.35;;;8.60;99.90;;;;;;4996530;28;89617;-28
2023/12/15 11:43:36;;;;;;;16.77;6.95;;;8.70;99.90;;;;;;4996532;28;88073;-31
2023/12/15 11:46:03;;;;;;;24.50;7.25;;;8.70;99.90;;;;;;4983821;28;88621;-30
2023/12/15 11:48:29;;;;;;;20.40;8.25;;;8.70;99.90;;;;;;4995390;28;89563;-29
2023/12/15 11:50:56;;;;;;;16.17;7.57;;;8.80;99.90;;;;;;4995011;28;89563;-29
2023/12/15 11:53:22;;;;;;;21.85;8.20;;;8.80;99.90;;;;;;4995718;28;88089;-29
2023/12/15 11:55:49;;;;;;;22.98;7.82;;;8.80;99.90;;;;;;4996507;28;89030;-31
2023/12/15 11:58:15;;;;;;;16.52;5.50;;;8.80;99.90;;;;;;4994171;28;88348;-32
2023/12/15 12:00:41;;;;;;;14.75;6.07;;;8.80;99.90;;;;;;4995539;28;89515;-29
2023/12/15 12:03:09;;;;;;;14.90;5.07;;;8.90;99.90;;;;;;4994667;28;88818;-30
2023/12/15 12:05:35;;;;;;;13.70;8.13;;;8.90;99.90;;;;;;4995912;28;89952;-30
2023/12/15 12:08:01;;;;;;;21.92;7.13;;;8.90;99.90;;;;;;4993892;28;89932;-30
2023/12/15 12:10:31;;;;;;;24.33;7.82;;;8.90;99.90;;;;;;4983819;28;89154;-30
2023/12/15 12:12:57;;;;;;;14.45;7.28;;;9.00;99.90;;;;;;4992818;28;88540;-32
2023/12/15 12:15:23;;;;;;;14.43;5.70;;;9.00;99.90;;;;;;4976606;28;90459;-33
2023/12/15 12:17:50;;;;;;;20.98;6.63;;;9.10;99.90;;;;;;4976722;28;88003;-31
2023/12/15 12:20:16;;;;;;;18.45;6.20;;;9.10;99.90;;;;;;4975878;28;89924;-31
2023/12/15 12:22:45;;;;;;;24.83;6.57;;;9.10;99.90;;;;;;4975866;28;89195;-33
2023/12/15 12:25:13;;;;;;;21.85;9.82;;;9.10;99.90;;;;;;4971473;28;92497;-31
2023/12/15 12:27:38;;;;;;;11.43;5.63;;;9.10;99.90;;;;;;4979200;28;91764;-29
2023/12/15 12:30:12;;;;;;;20.05;7.30;;;9.10;99.90;;;;;;4986340;28;90493;-30
2023/12/15 12:32:38;;;;;;;18.20;7.40;;;9.10;99.90;;;;;;4974764;28;89419;-30